createdAt,value
2016-11-04T00:00:37.999Z,1004.89
2016-11-04T00:01:47.980Z,1004.88
2016-11-04T00:02:58.314Z,1004.83
2016-11-04T00:04:08.305Z,1004.83
2016-11-04T00:05:17.976Z,1004.82
2016-11-04T00:06:28.341Z,1004.82
2016-11-04T00:07:38.628Z,1004.87
2016-11-04T00:08:48.914Z,1004.83
2016-11-04T00:09:58.891Z,1004.88
2016-11-04T00:11:08.559Z,1004.89
2016-11-04T00:12:18.881Z,1004.86
2016-11-04T00:13:29.208Z,1004.87
2016-11-04T00:14:39.170Z,1004.81
2016-11-04T00:15:49.446Z,1004.81
2016-11-04T00:16:59.413Z,1004.79
2016-11-04T00:18:09.734Z,1004.8
2016-11-04T00:19:20.011Z,1004.74
2016-11-04T00:20:30.292Z,1004.79
2016-11-04T00:21:40.573Z,1004.76
2016-11-04T00:22:50.236Z,1004.78
2016-11-04T00:24:00.520Z,1004.73
2016-11-04T00:25:10.483Z,1004.76
2016-11-04T00:26:20.143Z,1004.76
2016-11-04T00:27:30.439Z,1004.77
2016-11-04T00:28:40.723Z,1004.78
2016-11-04T00:29:50.712Z,1004.8
2016-11-04T00:31:00.991Z,1004.8
2016-11-04T00:32:11.259Z,1004.77
2016-11-04T00:33:21.535Z,1004.77
2016-11-04T00:34:31.196Z,1004.76
2016-11-04T00:35:41.170Z,1004.76
2016-11-04T00:36:51.451Z,1004.76
2016-11-04T00:38:01.413Z,1004.73
2016-11-04T00:39:11.397Z,1004.74
2016-11-04T00:40:21.367Z,1004.72
2016-11-04T00:41:31.037Z,1004.77
2016-11-04T00:42:41.006Z,1004.76
2016-11-04T00:43:51.326Z,1004.76
2016-11-04T00:45:00.682Z,1004.75
2016-11-04T00:46:10.974Z,1004.75
2016-11-04T00:47:20.961Z,1004.77
2016-11-04T00:48:30.943Z,1004.72
2016-11-04T00:49:41.236Z,1004.72
2016-11-04T00:50:51.522Z,1004.75
2016-11-04T00:52:01.869Z,1004.71
2016-11-04T00:53:12.155Z,1004.73
2016-11-04T00:54:22.139Z,1004.67
2016-11-04T00:55:32.093Z,1004.67
2016-11-04T00:56:42.370Z,1004.68
2016-11-04T00:57:52.660Z,1004.66
2016-11-04T00:59:02.638Z,1004.71
2016-11-04T01:00:12.910Z,1004.7
2016-11-04T01:01:22.882Z,1004.68
2016-11-04T01:02:32.858Z,1004.63
2016-11-04T01:03:43.135Z,1004.62
2016-11-04T01:04:52.793Z,1004.66
2016-11-04T01:06:03.064Z,1004.65
2016-11-04T01:07:13.340Z,1004.57
2016-11-04T01:08:23.319Z,1004.57
2016-11-04T01:09:33.599Z,1004.6
2016-11-04T01:10:43.249Z,1004.61
2016-11-04T01:11:53.535Z,1004.6
2016-11-04T01:13:03.815Z,1004.6
2016-11-04T01:14:13.824Z,1004.6
2016-11-04T01:15:24.097Z,1004.63
2016-11-04T01:16:34.363Z,1004.63
2016-11-04T01:17:44.645Z,1004.66
2016-11-04T01:18:54.312Z,1004.63
2016-11-04T01:20:04.605Z,1004.63
2016-11-04T01:21:14.580Z,1004.64
2016-11-04T01:22:24.561Z,1004.61
2016-11-04T01:23:34.829Z,1004.6
2016-11-04T01:24:44.801Z,1004.59
2016-11-04T01:25:55.093Z,1004.58
2016-11-04T01:27:05.391Z,1004.62
2016-11-04T01:28:15.661Z,1004.61
2016-11-04T01:29:25.646Z,1004.6
2016-11-04T01:30:35.923Z,1004.58
2016-11-04T01:31:46.191Z,1004.6
2016-11-04T01:32:56.162Z,1004.6
2016-11-04T01:34:06.124Z,1004.63
2016-11-04T01:35:16.401Z,1004.68
2016-11-04T01:36:26.412Z,1004.64
2016-11-04T01:37:36.698Z,1004.63
2016-11-04T01:38:47.015Z,1004.64
2016-11-04T01:39:57.322Z,1004.59
2016-11-04T01:41:07.604Z,1004.59
2016-11-04T01:42:17.896Z,1004.61
2016-11-04T01:43:27.879Z,1004.6
2016-11-04T01:44:38.165Z,1004.64
2016-11-04T01:45:48.460Z,1004.65
2016-11-04T01:46:58.726Z,1004.64
2016-11-04T01:48:09.000Z,1004.64
2016-11-04T01:49:18.976Z,1004.63
2016-11-04T01:50:29.248Z,1004.62
2016-11-04T01:51:39.545Z,1004.57
2016-11-04T01:52:49.844Z,1004.58
2016-11-04T01:53:59.813Z,1004.54
2016-11-04T01:55:10.098Z,1004.57
2016-11-04T01:56:20.057Z,1004.52
2016-11-04T01:57:30.346Z,1004.5
2016-11-04T01:58:40.364Z,1004.51
2016-11-04T01:59:50.345Z,1004.49
2016-11-04T02:01:00.632Z,1004.47
2016-11-04T02:02:10.909Z,1004.48
2016-11-04T02:03:20.874Z,1004.41
2016-11-04T02:04:31.196Z,1004.42
2016-11-04T02:05:40.866Z,1004.4
2016-11-04T02:06:51.159Z,1004.39
2016-11-04T02:08:01.442Z,1004.41
2016-11-04T02:09:11.450Z,1004.36
2016-11-04T02:10:21.730Z,1004.36
2016-11-04T02:11:31.702Z,1004.31
2016-11-04T02:12:41.986Z,1004.32
2016-11-04T02:13:52.262Z,1004.34
2016-11-04T02:15:02.556Z,1004.32
2016-11-04T02:16:12.533Z,1004.31
2016-11-04T02:17:22.811Z,1004.33
2016-11-04T02:18:33.087Z,1004.31
2016-11-04T02:19:43.073Z,1004.32
2016-11-04T02:20:53.058Z,1004.33
2016-11-04T02:22:03.072Z,1004.33
2016-11-04T02:23:13.355Z,1004.31
2016-11-04T02:24:23.659Z,1004.35
2016-11-04T02:25:33.937Z,1004.31
2016-11-04T02:26:43.919Z,1004.31
2016-11-04T02:27:53.875Z,1004.29
2016-11-04T02:29:04.161Z,1004.33
2016-11-04T02:30:14.145Z,1004.34
2016-11-04T02:31:24.430Z,1004.3
2016-11-04T02:32:34.706Z,1004.32
2016-11-04T02:33:44.987Z,1004.29
2016-11-04T02:34:55.005Z,1004.28
2016-11-04T02:36:04.685Z,1004.25
2016-11-04T02:37:14.658Z,1004.2
2016-11-04T02:38:24.620Z,1004.19
2016-11-04T02:39:34.295Z,1004.21
2016-11-04T02:40:44.278Z,1004.2
2016-11-04T02:41:54.254Z,1004.19
2016-11-04T02:43:04.228Z,1004.18
2016-11-04T02:44:13.883Z,1004.2
2016-11-04T02:45:24.189Z,1004.14
2016-11-04T02:46:34.517Z,1004.1
2016-11-04T02:47:44.793Z,1004.11
2016-11-04T02:48:55.072Z,1004.08
2016-11-04T02:50:05.345Z,1004.06
2016-11-04T02:51:15.619Z,1004.07
2016-11-04T02:52:25.904Z,1004.11
2016-11-04T02:53:35.871Z,1004.06
2016-11-04T02:54:46.167Z,1004.04
2016-11-04T02:55:56.138Z,1004.05
2016-11-04T02:57:06.422Z,1004.07
2016-11-04T02:58:16.717Z,1004.13
2016-11-04T02:59:26.378Z,1004.09
2016-11-04T03:00:36.070Z,1004.07
2016-11-04T03:32:00.517Z,1003.89
2016-11-04T03:33:10.772Z,1003.89
2016-11-04T03:34:21.044Z,1003.88
2016-11-04T03:35:31.322Z,1003.83
2016-11-04T03:36:41.598Z,1003.83
2016-11-04T03:37:51.566Z,1003.77
2016-11-04T03:39:01.537Z,1003.79
2016-11-04T03:40:11.821Z,1003.78
2016-11-04T03:41:22.105Z,1003.78
2016-11-04T03:42:32.392Z,1003.8
2016-11-04T03:43:42.674Z,1003.78
2016-11-04T03:44:52.959Z,1003.82
2016-11-04T03:46:02.940Z,1003.79
2016-11-04T03:47:13.217Z,1003.83
2016-11-04T03:48:23.504Z,1003.82
2016-11-04T03:49:33.819Z,1003.82
2016-11-04T03:50:44.101Z,1003.84
2016-11-04T03:51:54.384Z,1003.8
2016-11-04T03:53:04.662Z,1003.83
2016-11-04T03:54:14.642Z,1003.8
2016-11-04T03:55:24.324Z,1003.75
2016-11-04T03:56:34.293Z,1003.72
2016-11-04T03:57:44.288Z,1003.69
2016-11-04T03:58:54.579Z,1003.71
2016-11-04T04:00:04.861Z,1003.7
2016-11-04T04:01:14.562Z,1003.69
2016-11-04T04:02:24.224Z,1003.7
2016-11-04T04:03:34.498Z,1003.72
2016-11-04T04:04:44.777Z,1003.7
2016-11-04T04:05:55.056Z,1003.62
2016-11-04T04:07:05.317Z,1003.6
2016-11-04T04:08:15.598Z,1003.52
2016-11-04T04:09:25.876Z,1003.54
2016-11-04T04:10:35.849Z,1003.52
2016-11-04T04:11:45.842Z,1003.53
2016-11-04T04:12:55.509Z,1003.51
2016-11-04T04:14:05.782Z,1003.51
2016-11-04T04:15:16.063Z,1003.51
2016-11-04T04:16:25.758Z,1003.5
2016-11-04T04:17:35.730Z,1003.52
2016-11-04T04:18:45.703Z,1003.51
2016-11-04T04:19:55.990Z,1003.5
2016-11-04T04:21:05.971Z,1003.51
2016-11-04T04:22:16.259Z,1003.48
2016-11-04T04:23:26.543Z,1003.47
2016-11-04T04:24:36.826Z,1003.47
2016-11-04T04:25:46.795Z,1003.52
2016-11-04T04:26:56.681Z,1003.52
2016-11-04T04:28:06.957Z,1003.54
2016-11-04T04:29:17.247Z,1003.54
2016-11-04T04:30:27.523Z,1003.53
2016-11-04T04:31:37.809Z,1003.53
2016-11-04T04:32:47.783Z,1003.55
2016-11-04T04:33:57.760Z,1003.56
2016-11-04T04:35:07.727Z,1003.56
2016-11-04T04:36:18.034Z,1003.52
2016-11-04T04:37:28.311Z,1003.53
2016-11-04T04:38:38.281Z,1003.48
2016-11-04T04:39:48.254Z,1003.47
2016-11-04T04:40:58.531Z,1003.46
2016-11-04T04:42:08.506Z,1003.45
2016-11-04T04:43:18.481Z,1003.4
2016-11-04T04:44:28.760Z,1003.36
2016-11-04T04:45:39.072Z,1003.31
2016-11-04T04:46:49.275Z,1003.29
2016-11-04T04:47:59.555Z,1003.31
2016-11-04T04:49:09.839Z,1003.3
2016-11-04T04:50:19.804Z,1003.28
2016-11-04T04:51:30.097Z,1003.29
2016-11-04T04:52:40.387Z,1003.24
2016-11-04T04:53:50.668Z,1003.24
2016-11-04T04:55:00.987Z,1003.24
2016-11-04T04:56:11.263Z,1003.26
2016-11-04T04:57:21.244Z,1003.24
2016-11-04T04:58:31.537Z,1003.24
2016-11-04T04:59:41.814Z,1003.28
2016-11-04T05:00:52.101Z,1003.21
2016-11-04T05:02:02.375Z,1003.24
2016-11-04T05:03:12.367Z,1003.25
2016-11-04T05:04:22.651Z,1003.26
2016-11-04T05:05:32.945Z,1003.22
2016-11-04T05:06:43.228Z,1003.21
2016-11-04T05:07:53.514Z,1003.17
2016-11-04T05:09:03.472Z,1003.14
2016-11-04T05:10:13.482Z,1003.1
2016-11-04T05:11:23.450Z,1003.14
2016-11-04T05:12:33.425Z,1003.17
2016-11-04T05:13:43.710Z,1003.07
2016-11-04T05:14:53.990Z,1003.08
2016-11-04T05:16:03.667Z,1003.04
2016-11-04T05:17:13.964Z,1003.05
2016-11-04T05:18:24.231Z,1003.03
2016-11-04T05:19:34.206Z,1003.07
2016-11-04T05:20:43.875Z,1003.06
2016-11-04T05:21:53.840Z,1003.05
2016-11-04T05:23:03.544Z,1003.09
2016-11-04T05:24:13.510Z,1003.05
2016-11-04T05:25:23.791Z,1003.05
2016-11-04T05:26:34.061Z,1003.04
2016-11-04T05:27:43.743Z,1003.02
2016-11-04T05:28:54.022Z,1003.06
2016-11-04T05:30:03.687Z,1003.04
2016-11-04T05:31:13.973Z,1003.04
2016-11-04T05:32:23.955Z,1003.03
2016-11-04T05:33:33.939Z,1003.02
2016-11-04T05:34:44.214Z,1003.05
2016-11-04T05:35:53.870Z,1003.06
2016-11-04T05:37:03.837Z,1003.06
2016-11-04T05:38:13.515Z,1003.08
2016-11-04T05:39:23.836Z,1003.08
2016-11-04T05:40:34.162Z,1003.09
2016-11-04T05:41:43.844Z,1003.07
2016-11-04T05:42:53.843Z,1003.04
2016-11-04T05:44:04.127Z,1003.07
2016-11-04T05:45:14.414Z,1003.07
2016-11-04T05:46:24.396Z,1003.05
2016-11-04T05:47:34.673Z,1003.06
2016-11-04T05:48:44.630Z,1003.01
2016-11-04T05:49:54.941Z,1003.07
2016-11-04T05:51:04.954Z,1003.04
2016-11-04T05:52:14.922Z,1003.09
2016-11-04T05:53:25.210Z,1003.11
2016-11-04T05:54:35.493Z,1003.08
2016-11-04T05:55:45.770Z,1003.11
2016-11-04T05:56:56.066Z,1003.1
2016-11-04T05:58:06.053Z,1003.14
2016-11-04T05:59:15.716Z,1003.17
2016-11-04T06:00:25.983Z,1003.16
2016-11-04T06:01:36.270Z,1003.19
2016-11-04T06:02:46.226Z,1003.18
2016-11-04T06:03:56.197Z,1003.2
2016-11-04T06:05:06.195Z,1003.22
2016-11-04T06:06:16.475Z,1003.24
2016-11-04T06:07:26.458Z,1003.16
2016-11-04T06:08:36.748Z,1003.16
2016-11-04T06:09:46.425Z,1003.14
2016-11-04T06:10:56.751Z,1003.1
2016-11-04T06:12:06.723Z,1003.12
2016-11-04T06:13:16.405Z,1003.15
2016-11-04T06:14:26.697Z,1003.1
2016-11-04T06:15:36.986Z,1003.09
2016-11-04T06:16:47.265Z,1003.07
2016-11-04T06:17:57.223Z,1003.05
2016-11-04T06:19:07.189Z,1003.11
2016-11-04T06:20:17.525Z,1003.12
2016-11-04T06:21:27.812Z,1003.11
2016-11-04T06:22:37.789Z,1003.17
2016-11-04T06:23:47.760Z,1003.2
2016-11-04T06:24:57.744Z,1003.25
2016-11-04T06:26:07.714Z,1003.24
2016-11-04T06:27:17.692Z,1003.27
2016-11-04T06:28:27.972Z,1003.3
2016-11-04T06:29:37.979Z,1003.34
2016-11-04T06:30:47.946Z,1003.29
2016-11-04T06:31:58.252Z,1003.33
2016-11-04T06:33:08.613Z,1003.37
2016-11-04T06:34:18.587Z,1003.35
2016-11-04T06:35:28.593Z,1003.37
2016-11-04T06:36:38.878Z,1003.37
2016-11-04T06:37:48.846Z,1003.34
2016-11-04T06:38:58.507Z,1003.33
2016-11-04T06:40:08.594Z,1003.35
2016-11-04T06:41:18.576Z,1003.36
2016-11-04T06:42:28.862Z,1003.35
2016-11-04T06:43:39.148Z,1003.34
2016-11-04T06:44:48.519Z,1003.32
2016-11-04T06:45:58.792Z,1003.34
2016-11-04T06:47:08.453Z,1003.3
2016-11-04T06:48:18.735Z,1003.28
2016-11-04T06:49:28.723Z,1003.23
2016-11-04T06:50:38.698Z,1003.23
2016-11-04T06:51:48.999Z,1003.22
2016-11-04T06:52:59.283Z,1003.2
2016-11-04T06:54:09.278Z,1003.23
2016-11-04T06:55:19.290Z,1003.21
2016-11-04T06:56:28.953Z,1003.17
2016-11-04T06:57:39.234Z,1003.12
2016-11-04T06:58:49.511Z,1003.18
2016-11-04T06:59:59.172Z,1003.14
2016-11-04T07:01:09.153Z,1003.1
2016-11-04T07:02:18.825Z,1003.08
2016-11-04T07:03:28.797Z,1003.09
2016-11-04T07:04:38.765Z,1003.08
2016-11-04T07:05:48.730Z,1003.09
2016-11-04T07:06:59.015Z,1003.11
2016-11-04T07:08:09.005Z,1003.17
2016-11-04T07:09:18.671Z,1003.15
2016-11-04T07:10:28.644Z,1003.2
2016-11-04T07:11:38.953Z,1003.2
2016-11-04T07:12:48.935Z,1003.25
2016-11-04T07:13:58.952Z,1003.2
2016-11-04T07:15:08.918Z,1003.23
2016-11-04T07:16:19.126Z,1003.21
2016-11-04T07:17:29.097Z,1003.27
2016-11-04T07:18:39.434Z,1003.24
2016-11-04T07:19:49.710Z,1003.21
2016-11-04T07:21:00.021Z,1003.25
2016-11-04T07:22:09.988Z,1003.25
2016-11-04T07:23:19.966Z,1003.24
2016-11-04T07:24:29.646Z,1003.26
2016-11-04T07:25:39.625Z,1003.31
2016-11-04T07:26:49.915Z,1003.3
2016-11-04T07:27:59.610Z,1003.28
2016-11-04T07:29:09.589Z,1003.27
2016-11-04T07:30:19.553Z,1003.25
2016-11-04T07:31:29.525Z,1003.22
2016-11-04T07:32:39.513Z,1003.22
2016-11-04T07:33:49.179Z,1003.26
2016-11-04T07:34:59.470Z,1003.25
2016-11-04T07:36:09.461Z,1003.17
2016-11-04T07:37:19.443Z,1003.19
2016-11-04T07:38:29.725Z,1003.22
2016-11-04T07:39:39.682Z,1003.23
2016-11-04T07:40:49.348Z,1003.26
2016-11-04T07:41:59.311Z,1003.18
2016-11-04T07:43:09.607Z,1003.18
2016-11-04T07:44:19.904Z,1003.16
2016-11-04T07:45:30.196Z,1003.18
2016-11-04T07:46:40.487Z,1003.19
2016-11-04T07:47:50.478Z,1003.18
2016-11-04T07:49:00.778Z,1003.16
2016-11-04T07:50:10.748Z,1003.16
2016-11-04T07:51:20.719Z,1003.19
2016-11-04T07:52:30.999Z,1003.13
2016-11-04T07:53:41.280Z,1003.12
2016-11-04T07:54:51.606Z,1003.1
2016-11-04T07:56:03.080Z,1003.09
2016-11-04T07:57:13.089Z,1003.11
2016-11-04T07:58:23.458Z,1003.08
2016-11-04T07:59:33.232Z,1003.04
2016-11-04T08:00:43.801Z,1003.05
2016-11-04T08:01:54.141Z,1003
2016-11-04T08:03:04.165Z,1002.95
2016-11-04T08:04:14.249Z,1002.92
2016-11-04T08:05:24.661Z,1002.9
2016-11-04T08:06:34.694Z,1002.92
2016-11-04T08:07:45.006Z,1002.96
2016-11-04T08:08:55.027Z,1002.95
2016-11-04T08:10:04.420Z,1003
2016-11-04T08:11:14.406Z,1003.05
2016-11-04T08:12:24.101Z,1003.08
2016-11-04T08:13:33.817Z,1003.1
2016-11-04T08:14:43.511Z,1003.13
2016-11-04T08:15:53.856Z,1003.07
2016-11-04T08:17:03.871Z,1003.09
2016-11-04T08:18:14.174Z,1003.06
2016-11-04T08:19:24.184Z,1003.08
2016-11-04T08:20:33.856Z,1003.03
2016-11-04T08:21:43.842Z,1003.1
2016-11-04T08:22:53.855Z,1003.07
2016-11-04T08:24:03.548Z,1003.07
2016-11-04T08:25:13.851Z,1003.09
2016-11-04T08:26:24.142Z,1003.09
2016-11-04T08:27:34.168Z,1003.08
2016-11-04T08:28:44.539Z,1003.1
2016-11-04T08:29:54.606Z,1003.12
2016-11-04T08:31:04.605Z,1003.11
2016-11-04T08:32:14.903Z,1003.1
2016-11-04T08:33:25.123Z,1003.08
2016-11-04T08:34:35.412Z,1003.11
2016-11-04T08:35:45.452Z,1003.08
2016-11-04T08:36:55.469Z,1003.06
2016-11-04T08:38:05.770Z,1003.08
2016-11-04T08:39:15.776Z,1003.13
2016-11-04T08:40:26.066Z,1003.09
2016-11-04T08:41:36.362Z,1003.09
2016-11-04T08:42:46.708Z,1003.06
2016-11-04T08:43:57.024Z,1003.05
2016-11-04T08:45:07.331Z,1003.05
2016-11-04T08:46:17.340Z,1003.02
2016-11-04T08:47:27.075Z,1003.01
2016-11-04T08:48:37.411Z,1002.96
2016-11-04T08:49:47.794Z,1002.95
2016-11-04T08:50:58.105Z,1002.91
2016-11-04T08:52:08.126Z,1002.86
2016-11-04T08:53:18.432Z,1002.89
2016-11-04T08:54:28.440Z,1002.87
2016-11-04T08:55:38.737Z,1002.88
2016-11-04T08:56:48.727Z,1002.91
2016-11-04T08:57:59.028Z,1002.93
2016-11-04T08:59:09.327Z,1002.91
2016-11-04T09:00:18.694Z,1002.91
2016-11-04T09:01:28.731Z,1002.88
2016-11-04T09:02:39.026Z,1002.9
2016-11-04T09:03:49.337Z,1002.87
2016-11-04T09:04:59.018Z,1002.88
2016-11-04T09:06:09.313Z,1002.92
2016-11-04T09:07:18.998Z,1002.97
2016-11-04T09:08:29.309Z,1002.95
2016-11-04T09:09:39.612Z,1002.95
2016-11-04T09:10:49.613Z,1002.95
2016-11-04T09:11:59.634Z,1002.98
2016-11-04T09:13:09.623Z,1002.95
2016-11-04T09:14:19.356Z,1002.98
2016-11-04T09:15:29.672Z,1002.95
2016-11-04T09:16:39.668Z,1002.94
2016-11-04T09:17:49.689Z,1002.92
2016-11-04T09:19:00.200Z,1002.94
2016-11-04T09:20:10.503Z,1002.89
2016-11-04T09:21:20.788Z,1002.94
2016-11-04T09:22:31.108Z,1003.03
2016-11-04T09:23:41.413Z,1003.02
2016-11-04T09:24:51.718Z,1002.98
2016-11-04T09:26:02.048Z,1002.99
2016-11-04T09:27:12.342Z,1002.97
2016-11-04T09:28:22.339Z,1003
2016-11-04T09:29:32.654Z,1002.94
2016-11-04T09:30:42.640Z,1002.95
2016-11-04T09:31:52.634Z,1002.9
2016-11-04T09:33:02.334Z,1002.91
2016-11-04T09:34:12.337Z,1002.92
2016-11-04T09:35:22.330Z,1002.93
2016-11-04T09:36:32.328Z,1002.91
2016-11-04T09:37:42.316Z,1002.88
2016-11-04T09:38:52.305Z,1002.89
2016-11-04T09:40:01.713Z,1002.87
2016-11-04T09:41:11.997Z,1002.88
2016-11-04T09:42:21.688Z,1002.91
2016-11-04T09:43:31.687Z,1002.9
2016-11-04T09:44:42.023Z,1002.91
2016-11-04T09:45:52.327Z,1002.92
2016-11-04T09:47:02.629Z,1002.88
2016-11-04T09:48:12.912Z,1002.89
2016-11-04T09:49:23.252Z,1002.88
2016-11-04T09:50:33.552Z,1002.84
2016-11-04T09:51:43.580Z,1002.82
2016-11-04T09:52:53.891Z,1002.82
2016-11-04T09:54:03.917Z,1002.79
2016-11-04T09:55:14.220Z,1002.75
2016-11-04T09:56:24.234Z,1002.75
2016-11-04T09:57:34.528Z,1002.71
2016-11-04T09:58:44.860Z,1002.73
2016-11-04T09:59:55.157Z,1002.69
2016-11-04T10:01:05.481Z,1002.69
2016-11-04T10:02:15.795Z,1002.67
2016-11-04T10:03:25.796Z,1002.68
2016-11-04T10:04:35.815Z,1002.64
2016-11-04T10:05:46.112Z,1002.61
2016-11-04T10:06:56.108Z,1002.6
2016-11-04T10:08:06.413Z,1002.59
2016-11-04T10:09:16.737Z,1002.59
2016-11-04T10:10:27.045Z,1002.6
2016-11-04T10:11:37.026Z,1002.56
2016-11-04T10:12:47.346Z,1002.55
2016-11-04T10:13:57.061Z,1002.52
2016-11-04T10:15:07.352Z,1002.49
2016-11-04T10:16:17.663Z,1002.49
2016-11-04T10:17:27.648Z,1002.5
2016-11-04T10:18:37.642Z,1002.45
2016-11-04T10:19:47.630Z,1002.46
2016-11-04T10:20:57.651Z,1002.49
2016-11-04T10:22:07.979Z,1002.46
2016-11-04T10:23:18.288Z,1002.44
2016-11-04T10:24:27.984Z,1002.46
2016-11-04T10:25:37.983Z,1002.52
2016-11-04T10:26:48.003Z,1002.48
2016-11-04T10:27:58.334Z,1002.5
2016-11-04T10:29:08.660Z,1002.46
2016-11-04T10:30:18.953Z,1002.38
2016-11-04T10:31:29.270Z,1002.36
2016-11-04T10:32:39.579Z,1002.28
2016-11-04T10:33:49.904Z,1002.28
2016-11-04T10:34:59.884Z,1002.3
2016-11-04T10:36:09.598Z,1002.33
2016-11-04T10:37:21.398Z,1002.32
2016-11-04T10:38:31.389Z,1002.32
2016-11-04T10:39:41.390Z,1002.29
2016-11-04T10:40:51.371Z,1002.27
2016-11-04T10:42:01.359Z,1002.29
2016-11-04T10:43:11.347Z,1002.2
2016-11-04T10:44:21.659Z,1002.16
2016-11-04T10:45:31.661Z,1002.16
2016-11-04T10:46:41.951Z,1002.19
2016-11-04T10:47:52.275Z,1002.17
2016-11-04T10:49:02.302Z,1002.12
2016-11-04T10:50:12.610Z,1002.14
2016-11-04T10:51:22.982Z,1002.11
2016-11-04T10:52:32.992Z,1002.05
2016-11-04T10:53:42.981Z,1002.09
2016-11-04T10:54:53.282Z,1002.03
2016-11-04T10:56:03.599Z,1002.05
2016-11-04T10:57:13.915Z,1002.08
2016-11-04T10:58:24.237Z,1002.06
2016-11-04T10:59:34.226Z,1002.12
2016-11-04T11:00:44.250Z,1002.11
2016-11-04T11:01:54.251Z,1002.13
2016-11-04T11:03:04.271Z,1002.07
2016-11-04T11:04:14.603Z,1002.1
2016-11-04T11:05:24.297Z,1002.03
2016-11-04T11:06:34.295Z,1002.02
2016-11-04T11:07:44.277Z,1001.96
2016-11-04T11:08:54.265Z,1001.93
2016-11-04T11:10:04.596Z,1001.85
2016-11-04T11:11:14.892Z,1001.83
2016-11-04T11:12:24.894Z,1001.84
2016-11-04T11:13:35.240Z,1001.86
2016-11-04T11:14:45.241Z,1001.9
2016-11-04T11:15:55.561Z,1001.89
2016-11-04T11:17:05.875Z,1001.88
2016-11-04T11:18:16.162Z,1001.87
2016-11-04T11:19:26.476Z,1001.85
2016-11-04T11:20:36.159Z,1001.82
2016-11-04T11:21:45.543Z,1001.86
2016-11-04T11:22:55.821Z,1001.86
2016-11-04T11:24:06.155Z,1001.84
2016-11-04T11:25:16.453Z,1001.79
2016-11-04T11:26:26.130Z,1001.79
2016-11-04T11:27:36.449Z,1001.79
2016-11-04T11:28:46.127Z,1001.75
2016-11-04T11:29:56.117Z,1001.72
2016-11-04T11:31:06.417Z,1001.7
2016-11-04T11:32:16.708Z,1001.7
2016-11-04T11:33:26.374Z,1001.68
2016-11-04T11:34:35.750Z,1001.68
2016-11-04T11:35:46.063Z,1001.64
2016-11-04T11:36:55.743Z,1001.59
2016-11-04T11:38:05.728Z,1001.6
2016-11-04T11:39:15.736Z,1001.59
2016-11-04T11:40:25.759Z,1001.59
2016-11-04T11:41:35.764Z,1001.58
2016-11-04T11:42:45.762Z,1001.6
2016-11-04T11:43:56.069Z,1001.57
2016-11-04T11:45:06.358Z,1001.52
2016-11-04T11:46:16.677Z,1001.54
2016-11-04T11:47:26.715Z,1001.5
2016-11-04T11:48:36.715Z,1001.53
2016-11-04T11:49:46.412Z,1001.5
2016-11-04T11:50:56.504Z,1001.46
2016-11-04T11:52:06.800Z,1001.5
2016-11-04T11:53:17.147Z,1001.43
2016-11-04T11:54:27.451Z,1001.44
2016-11-04T11:55:37.437Z,1001.38
2016-11-04T11:56:47.446Z,1001.32
2016-11-04T11:57:56.827Z,1001.28
2016-11-04T11:59:06.809Z,1001.26
2016-11-04T12:00:17.128Z,1001.24
2016-11-04T12:01:26.187Z,1001.26
2016-11-04T12:02:36.484Z,1001.21
2016-11-04T12:03:46.484Z,1001.17
2016-11-04T12:04:56.484Z,1001.17
2016-11-04T12:06:06.188Z,1001.14
2016-11-04T12:07:16.192Z,1001.13
2016-11-04T12:08:26.181Z,1001.07
2016-11-04T12:09:36.478Z,1001.05
2016-11-04T12:10:46.770Z,1001.04
2016-11-04T12:11:56.776Z,1000.99
2016-11-04T12:13:07.111Z,1000.92
2016-11-04T12:14:17.095Z,1000.88
2016-11-04T12:15:27.092Z,1000.83
2016-11-04T12:16:37.456Z,1000.77
2016-11-04T12:17:47.461Z,1000.74
2016-11-04T12:18:57.789Z,1000.74
2016-11-04T12:20:07.827Z,1000.71
2016-11-04T12:21:17.831Z,1000.69
2016-11-04T12:22:27.816Z,1000.68
2016-11-04T12:23:38.146Z,1000.65
2016-11-04T12:24:48.430Z,1000.64
2016-11-04T12:25:58.420Z,1000.67
2016-11-04T12:27:08.696Z,1000.64
2016-11-04T12:28:18.992Z,1000.65
2016-11-04T12:29:28.681Z,1000.61
2016-11-04T12:30:38.707Z,1000.64
2016-11-04T12:31:48.708Z,1000.64
2016-11-04T12:32:58.703Z,1000.67
2016-11-04T12:34:08.687Z,1000.68
2016-11-04T12:35:19.025Z,1000.66
2016-11-04T12:36:28.423Z,1000.66
2016-11-04T12:37:38.761Z,1000.66
2016-11-04T12:38:48.737Z,1000.59
2016-11-04T12:39:59.082Z,1000.6
2016-11-04T12:41:09.387Z,1000.55
2016-11-04T12:42:19.378Z,1000.55
2016-11-04T12:43:29.360Z,1000.55
2016-11-04T12:44:39.671Z,1000.52
2016-11-04T12:45:49.341Z,1000.47
2016-11-04T12:46:58.708Z,1000.44
2016-11-04T12:48:08.996Z,1000.45
2016-11-04T12:49:18.685Z,1000.4
2016-11-04T12:50:28.979Z,1000.43
2016-11-04T12:51:39.279Z,1000.4
2016-11-04T12:52:49.263Z,1000.41
2016-11-04T12:53:59.611Z,1000.36
2016-11-04T12:55:09.907Z,1000.34
2016-11-04T12:56:19.876Z,1000.31
2016-11-04T12:57:30.181Z,1000.31
2016-11-04T12:58:40.491Z,1000.31
2016-11-04T12:59:50.506Z,1000.28
2016-11-04T13:01:00.535Z,1000.28
2016-11-04T13:02:10.202Z,1000.27
2016-11-04T13:03:20.557Z,1000.27
2016-11-04T13:04:30.848Z,1000.21
2016-11-04T13:05:41.141Z,1000.19
2016-11-04T13:06:51.429Z,1000.15
2016-11-04T13:08:01.458Z,1000.16
2016-11-04T13:09:11.767Z,1000.09
2016-11-04T13:10:21.761Z,1000.1
2016-11-04T13:11:31.759Z,1000.05
2016-11-04T13:12:41.758Z,1000.04
2016-11-04T13:13:52.069Z,1000.02
2016-11-04T13:15:02.420Z,999.99
2016-11-04T13:16:12.082Z,1000.03
2016-11-04T13:17:22.388Z,999.99
2016-11-04T13:18:32.391Z,999.96
2016-11-04T13:19:42.702Z,999.96
2016-11-04T13:20:53.010Z,999.97
2016-11-04T13:22:02.985Z,999.94
2016-11-04T13:23:12.982Z,999.89
2016-11-04T13:24:23.305Z,999.88
2016-11-04T13:25:33.612Z,999.81
2016-11-04T13:26:43.307Z,999.77
2016-11-04T13:27:53.309Z,999.73
2016-11-04T13:29:03.606Z,999.71
2016-11-04T13:30:13.595Z,999.71
2016-11-04T13:31:23.889Z,999.71
2016-11-04T13:32:33.857Z,999.72
2016-11-04T13:33:43.850Z,999.71
2016-11-04T13:34:54.145Z,999.73
2016-11-04T13:36:04.483Z,999.78
2016-11-04T13:37:14.169Z,999.78
2016-11-04T13:38:23.905Z,999.78
2016-11-04T13:39:33.912Z,999.73
2016-11-04T13:40:43.908Z,999.69
2016-11-04T13:41:54.226Z,999.64
2016-11-04T13:43:04.549Z,999.68
2016-11-04T13:44:14.844Z,999.63
2016-11-04T13:45:24.817Z,999.66
2016-11-04T13:46:35.119Z,999.68
2016-11-04T13:47:45.102Z,999.69
2016-11-04T13:48:55.138Z,999.65
2016-11-04T13:50:05.135Z,999.66
2016-11-04T13:51:14.504Z,999.64
2016-11-04T13:52:24.800Z,999.67
2016-11-04T13:53:34.838Z,999.68
2016-11-04T13:54:44.834Z,999.69
2016-11-04T13:55:54.823Z,999.69
2016-11-04T13:57:05.154Z,999.67
2016-11-04T13:58:15.140Z,999.68
2016-11-04T13:59:24.820Z,999.64
2016-11-04T14:00:34.821Z,999.61
2016-11-04T14:01:45.139Z,999.61
2016-11-04T14:02:55.136Z,999.61
2016-11-04T14:04:05.417Z,999.56
2016-11-04T14:05:15.426Z,999.55
2016-11-04T14:06:25.733Z,999.54
2016-11-04T14:07:35.746Z,999.55
2016-11-04T14:08:46.930Z,999.51
2016-11-04T14:09:56.920Z,999.47
2016-11-04T14:11:06.906Z,999.45
2016-11-04T14:12:17.220Z,999.44
2016-11-04T14:13:27.244Z,999.43
2016-11-04T14:14:37.551Z,999.42
2016-11-04T14:15:47.544Z,999.43
2016-11-04T14:16:57.845Z,999.4
2016-11-04T14:18:08.140Z,999.36
2016-11-04T14:19:18.428Z,999.3
2016-11-04T14:20:28.735Z,999.3
2016-11-04T14:21:39.019Z,999.25
2016-11-04T14:22:49.042Z,999.27
2016-11-04T14:23:58.728Z,999.25
2016-11-04T14:25:09.011Z,999.23
2016-11-04T14:26:18.686Z,999.25
2016-11-04T14:27:28.685Z,999.24
2016-11-04T14:28:38.997Z,999.24
2016-11-04T14:29:48.977Z,999.23
2016-11-04T14:30:58.973Z,999.17
2016-11-04T14:32:08.957Z,999.23
2016-11-04T14:33:19.277Z,999.19
2016-11-04T14:34:29.239Z,999.16
2016-11-04T14:35:39.247Z,999.16
2016-11-04T14:36:49.254Z,999.17
2016-11-04T14:37:59.299Z,999.19
2016-11-04T14:39:08.969Z,999.18
2016-11-04T14:40:19.264Z,999.15
2016-11-04T14:41:29.563Z,999.16
2016-11-04T14:42:39.536Z,999.17
2016-11-04T14:43:49.523Z,999.1